Home > Products > Valid Products > TAF

000
FTUS43 KDLH 310000 AAA
TAFBRD
TAF AMD
KBRD 310030Z 3101/3124 05009KT P6SM SCT014 OVC070
     FM310300 20005KT P6SM SCT035 BKN060
     FM310900 28008KT P6SM BKN060
     FM311500 31011G18KT P6SM SCT080
     FM312100 33009KT P6SM SCT080=



000
FTUS43 KDLH 310000 AAA
TAFBRD
TAF AMD
KBRD 310030Z 3101/3124 05009KT P6SM SCT014 OVC070
     FM310300 20005KT P6SM SCT035 BKN060
     FM310900 28008KT P6SM BKN060
     FM311500 31011G18KT P6SM SCT080
     FM312100 33009KT P6SM SCT080=



000
FTUS43 KDLH 310000 AAA
TAFHYR
TAF AMD
KHYR 310001Z 3100/3124 01004KT 6SM -RA BKN025 OVC040
      TEMPO 3100/3103 5SM -RASN OVC015
     FM310600 VRB03KT P6SM SCT035 OVC060
     FM311400 28008KT P6SM BKN080
     FM311900 31012KT P6SM SCT080=



000
FTUS43 KDLH 310000 AAA
TAFHYR
TAF AMD
KHYR 310001Z 3100/3124 01004KT 6SM -RA BKN025 OVC040
      TEMPO 3100/3103 5SM -RASN OVC015
     FM310600 VRB03KT P6SM SCT035 OVC060
     FM311400 28008KT P6SM BKN080
     FM311900 31012KT P6SM SCT080=



000
FTUS43 KDLH 302300 RRA
TAFBRD
TAF
KBRD 302345Z 3100/3124 06011KT P6SM SCT014 OVC070
      TEMPO 3100/3101 BKN012
     FM310300 20005KT P6SM SCT035 BKN060
     FM310900 28008KT P6SM BKN060
     FM311500 31011G18KT P6SM SCT080
     FM312100 33009KT P6SM SCT080=



000
FTUS43 KDLH 302300 RRA
TAFINL
TAF
KINL 302345Z 3100/3124 26006KT P6SM VCSH BKN070
     FM310300 25006KT P6SM VCSH SCT035 BKN060
      TEMPO 3103/3107 4SM -RASN BKN015
     FM310800 28009KT P6SM BKN040
     FM311400 32012G18KT P6SM BKN050
     FM311900 35009KT P6SM SCT080=



000
FTUS43 KDLH 302300 RRA
TAFHYR
TAF
KHYR 302345Z 3100/3124 34003KT 3SM RA BR BKN025 OVC040
     FM310100 01003KT 6SM -RA BKN025 OVC040
      TEMPO 3101/3103 5SM -RASN OVC015
     FM310600 VRB03KT P6SM SCT035 OVC060
     FM311400 28008KT P6SM BKN080
     FM311900 31012KT P6SM SCT080=



000
FTUS43 KDLH 302300 RRA
TAFBRD
TAF
KBRD 302345Z 3100/3124 06011KT P6SM SCT014 OVC070
      TEMPO 3100/3101 BKN012
     FM310300 20005KT P6SM SCT035 BKN060
     FM310900 28008KT P6SM BKN060
     FM311500 31011G18KT P6SM SCT080
     FM312100 33009KT P6SM SCT080=



000
FTUS43 KDLH 302300 RRA
TAFDLH
TAF
KDLH 302345Z 3100/3124 26008KT P6SM -RA SCT025 OVC035
      TEMPO 3100/3102 3SM -RASN OVC018
     FM310300 24005KT P6SM SCT015 BKN060
     FM310500 24004KT P6SM VCSH BKN035 OVC060
     FM311000 28009KT P6SM BKN070
     FM311400 31014G21KT P6SM BKN080
     FM312100 35012KT P6SM SCT080=



000
FTUS43 KDLH 302300 RRA
TAFDLH
TAF
KDLH 302345Z 3100/3124 26008KT P6SM -RA SCT025 OVC035
      TEMPO 3100/3102 3SM -RASN OVC018
     FM310300 24005KT P6SM SCT015 BKN060
     FM310500 24004KT P6SM VCSH BKN035 OVC060
     FM311000 28009KT P6SM BKN070
     FM311400 31014G21KT P6SM BKN080
     FM312100 35012KT P6SM SCT080=



000
FTUS43 KDLH 302300 RRA
TAFINL
TAF
KINL 302345Z 3100/3124 26006KT P6SM VCSH BKN070
     FM310300 25006KT P6SM VCSH SCT035 BKN060
      TEMPO 3103/3107 4SM -RASN BKN015
     FM310800 28009KT P6SM BKN040
     FM311400 32012G18KT P6SM BKN050
     FM311900 35009KT P6SM SCT080=



000
FTUS43 KDLH 302300 RRA
TAFHYR
TAF
KHYR 302345Z 3100/3124 34003KT 3SM RA BR BKN025 OVC040
     FM310100 01003KT 6SM -RA BKN025 OVC040
      TEMPO 3101/3103 5SM -RASN OVC015
     FM310600 VRB03KT P6SM SCT035 OVC060
     FM311400 28008KT P6SM BKN080
     FM311900 31012KT P6SM SCT080=



000
FTUS43 KDLH 302200 AAA
TAFHYR
TAF AMD
KHYR 302240Z 3023/3118 09006KT P6SM -RA SCT020 OVC040
      TEMPO 3023/3102 3SM -RASN BKN015 OVC025
     FM310200 00000KT 2SM -RASN SCT007 OVC012
     FM310800 VRB03KT P6SM OVC010=



000
FTUS43 KDLH 302200 AAA
TAFHYR
TAF AMD
KHYR 302240Z 3023/3118 09006KT P6SM -RA SCT020 OVC040
      TEMPO 3023/3102 3SM -RASN BKN015 OVC025
     FM310200 00000KT 2SM -RASN SCT007 OVC012
     FM310800 VRB03KT P6SM OVC010=



000
FTUS43 KDLH 302200 AAA
TAFBRD
TAF AMD
KBRD 302222Z 3022/3118 VRB06KT P6SM BKN060
      TEMPO 3022/3102 BKN012
     FM310300 29005KT P6SM SCT025 BKN040
     FM310900 30008KT P6SM SKC=



000
FTUS43 KDLH 302200 AAA
TAFINL
TAF AMD
KINL 302204Z 3022/3118 VRB05KT P6SM VCSH SCT035 OVC070
      TEMPO 3022/3102 6SM -RASN OVC025
     FM310200 VRB04KT 3SM -RASN OVC012
     FM311000 33010KT P6SM OVC015=



000
FTUS43 KDLH 302200 AAA
TAFINL
TAF AMD
KINL 302204Z 3022/3118 VRB05KT P6SM VCSH SCT035 OVC070
      TEMPO 3022/3102 6SM -RASN OVC025
     FM310200 VRB04KT 3SM -RASN OVC012
     FM311000 33010KT P6SM OVC015=



000
FTUS43 KDLH 302200 AAB
TAFDLH
TAF AMD
KDLH 302202Z 3022/3118 22008KT P6SM -RA SCT015 OVC035
      TEMPO 3022/3102 3SM -RASN OVC018
     FM310200 08005KT 2SM -SN OVC015
     FM310800 VRB03KT P6SM OVC012
     FM311400 21015G22KT P6SM SCT020=



000
FTUS43 KDLH 302200 AAB
TAFDLH
TAF AMD
KDLH 302202Z 3022/3118 22008KT P6SM -RA SCT015 OVC035
      TEMPO 3022/3102 3SM -RASN OVC018
     FM310200 08005KT 2SM -SN OVC015
     FM310800 VRB03KT P6SM OVC012
     FM311400 21015G22KT P6SM SCT020=



000
FTUS43 KDLH 302100 AAA
TAFDLH
TAF AMD
KDLH 302123Z 3021/3118 VRB04KT P6SM OVC070
     FM302200 10008KT P6SM -RA SCT015 OVC030
      TEMPO 3022/3102 3SM -RASN OVC020
     FM310200 08005KT 2SM -SN OVC015
     FM310800 VRB03KT P6SM OVC012
     FM311400 21015G22KT P6SM SCT020=



000
FTUS43 KDLH 302100 AAA
TAFDLH
TAF AMD
KDLH 302123Z 3021/3118 VRB04KT P6SM OVC070
     FM302200 10008KT P6SM -RA SCT015 OVC030
      TEMPO 3022/3102 3SM -RASN OVC020
     FM310200 08005KT 2SM -SN OVC015
     FM310800 VRB03KT P6SM OVC012
     FM311400 21015G22KT P6SM SCT020=



000
FTUS43 KDLH 301700
TAFBRD
TAF
KBRD 301730Z 3018/3118 VRB06KT P6SM BKN060
     FM310300 29005KT P6SM SCT025 BKN040
     FM310900 30008KT P6SM SKC=



000
FTUS43 KDLH 301700
TAFHYR
TAF
KHYR 301730Z 3018/3118 VRB04KT P6SM BKN100
     FM302100 09006KT P6SM -RA SCT020 OVC040
      TEMPO 3023/3102 3SM -RASN SCT015 OVC030
     FM310200 00000KT 2SM -RASN SCT007 OVC012
     FM310800 VRB03KT P6SM OVC010=



000
FTUS43 KDLH 301700
TAFINL
TAF
KINL 301730Z 3018/3118 VRB04KT P6SM BKN090
     FM302100 VRB05KT P6SM -RA SCT025 OVC035
      TEMPO 3022/3102 4SM -RASN OVC018
     FM310200 VRB04KT 3SM -RASN OVC012
     FM311000 33010KT P6SM OVC015=



000
FTUS43 KDLH 301700
TAFDLH
TAF
KDLH 301730Z 3018/3118 VRB04KT P6SM OVC070
     FM302100 10008KT P6SM -RA SCT015 OVC030
      TEMPO 3022/3102 3SM -RASN OVC020
     FM310200 08005KT 2SM -SN OVC015
     FM310800 VRB03KT P6SM OVC012
     FM311400 21015G22KT P6SM SCT020=



000
FTUS43 KDLH 301700
TAFHYR
TAF
KHYR 301730Z 3018/3118 VRB04KT P6SM BKN100
     FM302100 09006KT P6SM -RA SCT020 OVC040
      TEMPO 3023/3102 3SM -RASN SCT015 OVC030
     FM310200 00000KT 2SM -RASN SCT007 OVC012
     FM310800 VRB03KT P6SM OVC010=



000
FTUS43 KDLH 301700
TAFBRD
TAF
KBRD 301730Z 3018/3118 VRB06KT P6SM BKN060
     FM310300 29005KT P6SM SCT025 BKN040
     FM310900 30008KT P6SM SKC=



000
FTUS43 KDLH 301700
TAFINL
TAF
KINL 301730Z 3018/3118 VRB04KT P6SM BKN090
     FM302100 VRB05KT P6SM -RA SCT025 OVC035
      TEMPO 3022/3102 4SM -RASN OVC018
     FM310200 VRB04KT 3SM -RASN OVC012
     FM311000 33010KT P6SM OVC015=



000
FTUS43 KDLH 301700
TAFDLH
TAF
KDLH 301730Z 3018/3118 VRB04KT P6SM OVC070
     FM302100 10008KT P6SM -RA SCT015 OVC030
      TEMPO 3022/3102 3SM -RASN OVC020
     FM310200 08005KT 2SM -SN OVC015
     FM310800 VRB03KT P6SM OVC012
     FM311400 21015G22KT P6SM SCT020=



000
FTUS43 KDLH 301100 RRA
TAFHYR
TAF
KHYR 301145Z 3012/3112 VRB04KT P6SM BKN100
     FM302100 09006KT P6SM -RA SCT020 OVC040
      TEMPO 3021/3024 3SM -RASN SCT015 OVC030
     FM310000 05007KT 2SM -RASN OVC012
     FM310800 VRB03KT P6SM OVC010=



000
FTUS43 KDLH 301100 RRA
TAFINL
TAF
KINL 301145Z 3012/3112 VRB04KT P6SM BKN090
     FM302000 VRB05KT P6SM -RA SCT025 OVC035
      TEMPO 3022/3102 4SM -RASN OVC018
     FM310200 VRB04KT 3SM -RASN OVC012
     FM311000 27006KT P6SM OVC015=



000
FTUS43 KDLH 301100 RRA
TAFDLH
TAF
KDLH 301145Z 3012/3112 29007KT P6SM BKN120
     FM301600 VRB04KT P6SM OVC070
     FM302100 10008KT P6SM -RA SCT015 OVC030
      TEMPO 3021/3101 3SM -RASN OVC015
     FM310100 08005KT 2SM -SN OVC015
     FM310800 VRB03KT P6SM OVC012=



000
FTUS43 KDLH 301100 RRA
TAFBRD
TAF
KBRD 301145Z 3012/3112 VRB05KT P6SM BKN080
     FM301800 VRB06KT P6SM BKN060
     FM310300 29005KT P6SM SCT025 BKN040=



000
FTUS43 KDLH 301100 RRA
TAFDLH
TAF
KDLH 301145Z 3012/3112 29007KT P6SM BKN120
     FM301600 VRB04KT P6SM OVC070
     FM302100 10008KT P6SM -RA SCT015 OVC030
      TEMPO 3021/3101 3SM -RASN OVC015
     FM310100 08005KT 2SM -SN OVC015
     FM310800 VRB03KT P6SM OVC012=



000
FTUS43 KDLH 301100 RRA
TAFHYR
TAF
KHYR 301145Z 3012/3112 VRB04KT P6SM BKN100
     FM302100 09006KT P6SM -RA SCT020 OVC040
      TEMPO 3021/3024 3SM -RASN SCT015 OVC030
     FM310000 05007KT 2SM -RASN OVC012
     FM310800 VRB03KT P6SM OVC010=



000
FTUS43 KDLH 301100 RRA
TAFINL
TAF
KINL 301145Z 3012/3112 VRB04KT P6SM BKN090
     FM302000 VRB05KT P6SM -RA SCT025 OVC035
      TEMPO 3022/3102 4SM -RASN OVC018
     FM310200 VRB04KT 3SM -RASN OVC012
     FM311000 27006KT P6SM OVC015=



000
FTUS43 KDLH 301100 RRA
TAFBRD
TAF
KBRD 301145Z 3012/3112 VRB05KT P6SM BKN080
     FM301800 VRB06KT P6SM BKN060
     FM310300 29005KT P6SM SCT025 BKN040=



000
FTUS43 KDLH 300500
TAFHYR
TAF
KHYR 300535Z 3006/3106 28004KT P6SM FEW050
     FM301700 VRB05KT P6SM BKN050
      TEMPO 3020/3024 -SHRA SCT020 OVC050
     FM310000 VRB05KT 6SM -RA OVC030=



000
FTUS43 KDLH 300500
TAFDLH
TAF
KDLH 300535Z 3006/3106 29007KT P6SM FEW050
     FM301800 21007KT P6SM VCSH BKN060
     FM302000 13005KT P6SM VCSH SCT020 OVC050
      TEMPO 3020/3024 5SM -SHRA BKN025 OVC040
     FM310000 07005KT 6SM -RA BR OVC018 PROB30 3100/3105 5SM -RA
      OVC010=



000
FTUS43 KDLH 300500
TAFBRD
TAF
KBRD 300535Z 3006/3106 28004KT P6SM FEW050
     FM301600 11007KT P6SM BKN050
     FM301900 19013KT P6SM BKN050
     FM302300 29010KT P6SM SCT050
     FM310300 33005KT P6SM SCT060=



000
FTUS43 KDLH 300500
TAFINL
TAF
KINL 300535Z 3006/3106 26004KT P6SM FEW050
     FM301000 VRB03KT P6SM SCT050
      TEMPO 3010/3013 4SM BR
     FM301700 18005KT P6SM SCT020 BKN060
      TEMPO 3019/3023 5SM -SHRA BKN025 OVC050
     FM302300 VRB04KT 5SM -RA BR BKN018 OVC050=



000
FTUS43 KDLH 300500
TAFHYR
TAF
KHYR 300535Z 3006/3106 28004KT P6SM FEW050
     FM301700 VRB05KT P6SM BKN050
      TEMPO 3020/3024 -SHRA SCT020 OVC050
     FM310000 VRB05KT 6SM -RA OVC030=



000
FTUS43 KDLH 300500
TAFINL
TAF
KINL 300535Z 3006/3106 26004KT P6SM FEW050
     FM301000 VRB03KT P6SM SCT050
      TEMPO 3010/3013 4SM BR
     FM301700 18005KT P6SM SCT020 BKN060
      TEMPO 3019/3023 5SM -SHRA BKN025 OVC050
     FM302300 VRB04KT 5SM -RA BR BKN018 OVC050=



000
FTUS43 KDLH 300500
TAFDLH
TAF
KDLH 300535Z 3006/3106 29007KT P6SM FEW050
     FM301800 21007KT P6SM VCSH BKN060
     FM302000 13005KT P6SM VCSH SCT020 OVC050
      TEMPO 3020/3024 5SM -SHRA BKN025 OVC040
     FM310000 07005KT 6SM -RA BR OVC018 PROB30 3100/3105 5SM -RA
      OVC010=



000
FTUS43 KDLH 300500
TAFBRD
TAF
KBRD 300535Z 3006/3106 28004KT P6SM FEW050
     FM301600 11007KT P6SM BKN050
     FM301900 19013KT P6SM BKN050
     FM302300 29010KT P6SM SCT050
     FM310300 33005KT P6SM SCT060=



000
FTUS43 KDLH 300100 AAA
TAFINL
TAF AMD
KINL 300103Z 3001/3024 30008KT P6SM SCT050
     FM301000 VRB03KT 6SM BR SCT050
      TEMPO 3010/3013 4SM BR
     FM301700 21006KT P6SM VCSH SCT020 BKN060
      TEMPO 3018/3022 5SM -SHRA BKN020 OVC050=



000
FTUS43 KDLH 300100 AAA
TAFINL
TAF AMD
KINL 300103Z 3001/3024 30008KT P6SM SCT050
     FM301000 VRB03KT 6SM BR SCT050
      TEMPO 3010/3013 4SM BR
     FM301700 21006KT P6SM VCSH SCT020 BKN060
      TEMPO 3018/3022 5SM -SHRA BKN020 OVC050=



000
FTUS43 KDLH 300100 AAA
TAFHYR
TAF AMD
KHYR 300102Z 3001/3024 30004KT P6SM SCT050
     FM301800 25004KT P6SM SCT020 BKN080
      TEMPO 3019/3023 -SHRA SCT020 OVC050=



000
FTUS43 KDLH 300100 AAA
TAFHYR
TAF AMD
KHYR 300102Z 3001/3024 30004KT P6SM SCT050
     FM301800 25004KT P6SM SCT020 BKN080
      TEMPO 3019/3023 -SHRA SCT020 OVC050=



000
FTUS43 KDLH 300100 AAA
TAFDLH
TAF AMD
KDLH 300101Z 3001/3024 31010G17KT P6SM SCT045
     FM300300 29009KT P6SM SCT045
     FM301700 25007KT P6SM BKN120
     FM302100 21006KT P6SM VCSH SCT020 OVC050
      TEMPO 3021/3024 5SM -SHRA BKN025 OVC040=



000
FTUS43 KDLH 300100 AAA
TAFDLH
TAF AMD
KDLH 300101Z 3001/3024 31010G17KT P6SM SCT045
     FM300300 29009KT P6SM SCT045
     FM301700 25007KT P6SM BKN120
     FM302100 21006KT P6SM VCSH SCT020 OVC050
      TEMPO 3021/3024 5SM -SHRA BKN025 OVC040=



000
FTUS43 KDLH 292300
TAFHYR
TAF
KHYR 292330Z 3000/3024 32010G18KT P6SM SCT045
      TEMPO 3000/3002 BKN045
     FM300200 30004KT P6SM SCT045
     FM301800 25004KT P6SM SCT020 BKN080
      TEMPO 3019/3023 -SHRA SCT020 OVC050=



000
FTUS43 KDLH 292300
TAFDLH
TAF
KDLH 292330Z 3000/3024 31015G26KT P6SM SCT045
     FM300100 29010G18KT P6SM SCT045
      TEMPO 3001/3003 BKN045
     FM300300 29009KT P6SM SCT045
     FM301700 25007KT P6SM BKN120
     FM302100 21006KT P6SM VCSH SCT020 OVC050
      TEMPO 3021/3024 5SM -SHRA BKN025 OVC040=



000
FTUS43 KDLH 292300
TAFINL
TAF
KINL 292330Z 3000/3024 32015G23KT P6SM BKN050
     FM300200 30007KT P6SM SCT050
     FM301000 VRB03KT 6SM BR SCT050
      TEMPO 3010/3013 4SM BR
     FM301700 21006KT P6SM VCSH SCT020 BKN060
      TEMPO 3018/3022 5SM -SHRA BKN020 OVC050=



000
FTUS43 KDLH 292300
TAFBRD
TAF
KBRD 292330Z 3000/3024 32016G26KT P6SM SCT050
     FM300100 30010KT P6SM SCT070
      TEMPO 3001/3003 BKN070
     FM300600 28004KT P6SM SCT050
     FM301600 21007KT P6SM BKN060 PROB30 3016/3020 6SM -SHRA SCT020
      BKN035=



000
FTUS43 KDLH 292200 AAE
TAFHYR
TAF AMD
KHYR 292234Z 2923/3018 31013G22KT P6SM BKN040
     FM300100 30006KT P6SM BKN040
     FM300300 VRB03KT P6SM SCT035 BKN250=



000
FTUS43 KDLH 292100 AAC
TAFDLH
TAF AMD
KDLH 292136Z 2922/3018 32023G35KT P6SM VCSH SCT024 BKN035
      TEMPO 2922/2924 -SHRA BKN030
     FM300130 29010G16KT P6SM SCT040
      TEMPO 3002/3003 BKN040
     FM300300 29009KT P6SM SCT040
     FM301700 25007KT P6SM BKN120=



000
FTUS43 KDLH 292000 AAD
TAFHYR
TAF AMD
KHYR 292044Z 2921/3018 31007G18KT P6SM VCSH FEW013 BKN020 OVC030
     FM300100 30006KT P6SM BKN035
     FM300300 VRB03KT P6SM SCT035 BKN250=



000
FTUS43 KDLH 292000 AAD
TAFHYR
TAF AMD
KHYR 292044Z 2921/3018 31007G18KT P6SM VCSH FEW013 BKN020 OVC030
     FM300100 30006KT P6SM BKN035
     FM300300 VRB03KT P6SM SCT035 BKN250=



000
FTUS43 KDLH 292000 CCA
TAFDLH
TAF COR
KDLH 292034Z 2921/3018 32023G35KT P6SM VCSH FEW018 SCT024 BKN035
     FM300100 29011KT P6SM SCT028 BKN050
     FM300900 28006KT P6SM SKC
     FM301600 26005KT P6SM SCT100 BKN250=



000
FTUS43 KDLH 292000 AAB
TAFDLH
TAF AMD
KDLH 292033Z 2921/3018 31015G25KT P6SM VCSH FEW018 SCT024 BKN035
     FM300100 29011KT P6SM SCT028 BKN050
     FM300900 28006KT P6SM SKC
     FM301600 26005KT P6SM SCT100 BKN250=



000
FTUS43 KDLH 292000 AAB
TAFINL
TAF AMD
KINL 292009Z 2920/3018 33020G30KT P6SM SCT028 BKN035
     FM300200 30006KT P6SM BKN100=



000
FTUS43 KDLH 292000 AAB
TAFINL
TAF AMD
KINL 292009Z 2920/3018 33020G30KT P6SM SCT028 BKN035
     FM300200 30006KT P6SM BKN100=



000
FTUS43 KDLH 292000 AAA
TAFDLH
TAF AMD
KDLH 292007Z 2920/3018 31022G28KT P6SM VCSH SCT015 BKN021 OVC030
     FM292100 31015G25KT P6SM BKN023 OVC028
     FM300100 29011KT P6SM SCT028 BKN050
     FM300900 28006KT P6SM SKC
     FM301600 26005KT P6SM SCT100 BKN250=



000
FTUS43 KDLH 292000 AAC
TAFHYR
TAF AMD
KHYR 292006Z 2920/3018 VRB06KT P6SM -RA SCT009 BKN012 OVC017
     FM292100 30010G20KT P6SM BKN017 OVC023
     FM300100 30006KT P6SM BKN035
     FM300300 VRB03KT P6SM SCT035 BKN250=



000
FTUS43 KDLH 292000 AAC
TAFHYR
TAF AMD
KHYR 292006Z 2920/3018 VRB06KT P6SM -RA SCT009 BKN012 OVC017
     FM292100 30010G20KT P6SM BKN017 OVC023
     FM300100 30006KT P6SM BKN035
     FM300300 VRB03KT P6SM SCT035 BKN250=



000
FTUS43 KDLH 291900 AAB
TAFHYR
TAF AMD
KHYR 291900Z 2919/3018 28007KT 2SM -SN BR OVC006
     FM292100 30010G20KT P6SM BKN017 OVC023
     FM300100 30006KT P6SM BKN035
     FM300300 VRB03KT P6SM SCT035 BKN250=



000
FTUS43 KDLH 291800 AAA
TAFINL
TAF AMD
KINL 291832Z 2919/3018 33017G30KT P6SM VCSH FEW019 BKN027 OVC035
     FM300200 30006KT P6SM BKN100=



000
FTUS43 KDLH 291800 AAA
TAFINL
TAF AMD
KINL 291832Z 2919/3018 33017G30KT P6SM VCSH FEW019 BKN027 OVC035
     FM300200 30006KT P6SM BKN100=



000
FTUS43 KDLH 291800 AAA
TAFHYR
TAF AMD
KHYR 291830Z 2919/3018 25007KT 3/4SM -SN BR OVC004
     FM292100 30010G20KT P6SM BKN017 OVC023
     FM300100 30006KT P6SM BKN035
     FM300300 VRB03KT P6SM SCT035 BKN250=



000
FTUS43 KDLH 291800 AAA
TAFHYR
TAF AMD
KHYR 291830Z 2919/3018 25007KT 3/4SM -SN BR OVC004
     FM292100 30010G20KT P6SM BKN017 OVC023
     FM300100 30006KT P6SM BKN035
     FM300300 VRB03KT P6SM SCT035 BKN250=



000
FTUS43 KDLH 291800 AAA
TAFDLH
TAF AMD
KDLH 291822Z 2918/3018 31015G28KT P6SM VCSH BKN010 OVC015
      TEMPO 2918/2919 5SM -RA OVC010
     FM291900 32020G28KT P6SM BKN014 OVC020
     FM292100 31015G25KT P6SM BKN023 OVC028
     FM300100 29011KT P6SM SCT028 BKN050
     FM300900 28006KT P6SM SKC
     FM301600 26005KT P6SM SCT100 BKN250=



000
FTUS43 KDLH 291800 AAA
TAFDLH
TAF AMD
KDLH 291822Z 2918/3018 31015G28KT P6SM VCSH BKN010 OVC015
      TEMPO 2918/2919 5SM -RA OVC010
     FM291900 32020G28KT P6SM BKN014 OVC020
     FM292100 31015G25KT P6SM BKN023 OVC028
     FM300100 29011KT P6SM SCT028 BKN050
     FM300900 28006KT P6SM SKC
     FM301600 26005KT P6SM SCT100 BKN250=



000
FTUS43 KDLH 291700
TAFBRD
TAF
KBRD 291740Z 2918/3018 33023G35KT P6SM FEW022 OVC035
     FM292300 31012G22KT P6SM SCT035 BKN050
     FM300200 31008KT P6SM BKN100
     FM300600 VRB04KT P6SM BKN050=



000
FTUS43 KDLH 291700
TAFINL
TAF
KINL 291740Z 2918/3018 31015G23KT P6SM VCSH BKN014 OVC028
     FM300200 30006KT P6SM BKN100=



000
FTUS43 KDLH 291700
TAFHYR
TAF
KHYR 291740Z 2918/3018 23007KT 3SM -SN BR OVC005
     FM291900 29007G15KT 4SM -RA BR BKN008 OVC017
     FM292100 30010G20KT P6SM BKN017 OVC023
     FM300100 30006KT P6SM BKN035
     FM300300 VRB03KT P6SM SCT035 BKN250=



000
FTUS43 KDLH 291700
TAFDLH
TAF
KDLH 291740Z 2918/3018 32014G27KT P6SM OVC008
     FM291900 32020G28KT P6SM BKN014 OVC020
     FM292100 31015G25KT P6SM BKN023 OVC028
     FM300100 29011KT P6SM SCT028 BKN050
     FM300900 28006KT P6SM SKC
     FM301600 26005KT P6SM SCT100 BKN250=



000
FTUS43 KDLH 291700
TAFHYR
TAF
KHYR 291740Z 2918/3018 23007KT 3SM -SN BR OVC005
     FM291900 29007G15KT 4SM -RA BR BKN008 OVC017
     FM292100 30010G20KT P6SM BKN017 OVC023
     FM300100 30006KT P6SM BKN035
     FM300300 VRB03KT P6SM SCT035 BKN250=



000
FTUS43 KDLH 291700
TAFINL
TAF
KINL 291740Z 2918/3018 31015G23KT P6SM VCSH BKN014 OVC028
     FM300200 30006KT P6SM BKN100=



000
FTUS43 KDLH 291700
TAFDLH
TAF
KDLH 291740Z 2918/3018 32014G27KT P6SM OVC008
     FM291900 32020G28KT P6SM BKN014 OVC020
     FM292100 31015G25KT P6SM BKN023 OVC028
     FM300100 29011KT P6SM SCT028 BKN050
     FM300900 28006KT P6SM SKC
     FM301600 26005KT P6SM SCT100 BKN250=



000
FTUS43 KDLH 291700
TAFBRD
TAF
KBRD 291740Z 2918/3018 33023G35KT P6SM FEW022 OVC035
     FM292300 31012G22KT P6SM SCT035 BKN050
     FM300200 31008KT P6SM BKN100
     FM300600 VRB04KT P6SM BKN050=



000
FTUS43 KDLH 291700 AAD
TAFDLH
TAF AMD
KDLH 291701Z 2917/3012 27011KT 1SM -SN BR OVC004
     FM291800 32020G35KT P6SM BKN012 OVC020
     FM300000 30014KT P6SM BKN040=



000
FTUS43 KDLH 291700 AAD
TAFDLH
TAF AMD
KDLH 291701Z 2917/3012 27011KT 1SM -SN BR OVC004
     FM291800 32020G35KT P6SM BKN012 OVC020
     FM300000 30014KT P6SM BKN040=



000
FTUS43 KDLH 291700 AAE
TAFHYR
TAF AMD
KHYR 291700Z 2917/3012 21007KT 3/4SM -SN BR OVC008
     FM292000 29017G30KT P6SM OVC030
     FM300000 30012KT P6SM BKN035=



000
FTUS43 KDLH 291700 AAE
TAFHYR
TAF AMD
KHYR 291700Z 2917/3012 21007KT 3/4SM -SN BR OVC008
     FM292000 29017G30KT P6SM OVC030
     FM300000 30012KT P6SM BKN035=



000
FTUS43 KDLH 291600 AAD
TAFHYR
TAF AMD
KHYR 291615Z 2916/3012 21010KT 1 1/2SM RA BR OVC009
      TEMPO 2916/2917 5SM BR OVC011
     FM291700 22007KT 5SM -SN BR OVC011
     FM292000 29017G30KT P6SM OVC030
     FM300000 30012KT P6SM BKN035=



000
FTUS43 KDLH 291600 AAD
TAFHYR
TAF AMD
KHYR 291615Z 2916/3012 21010KT 1 1/2SM RA BR OVC009
      TEMPO 2916/2917 5SM BR OVC011
     FM291700 22007KT 5SM -SN BR OVC011
     FM292000 29017G30KT P6SM OVC030
     FM300000 30012KT P6SM BKN035=



000
FTUS43 KDLH 291600 AAC
TAFINL
TAF AMD
KINL 291611Z 2916/3012 32014G25KT P6SM VCSH BKN014 OVC024
     FM300000 30014KT P6SM BKN040=



000
FTUS43 KDLH 291600 AAC
TAFINL
TAF AMD
KINL 291611Z 2916/3012 32014G25KT P6SM VCSH BKN014 OVC024
     FM300000 30014KT P6SM BKN040=



000
FTUS43 KDLH 291600 AAC
TAFDLH
TAF AMD
KDLH 291610Z 2916/3012 25012KT 3SM -RA BR OVC006
      TEMPO 2916/2917 3/4SM -SN OVC010
     FM291700 27015KT 6SM -RA SCT009 OVC013
     FM291900 32020G35KT P6SM SCT015 OVC035
     FM300000 30014KT P6SM BKN040=



000
FTUS43 KDLH 291600 AAC
TAFDLH
TAF AMD
KDLH 291610Z 2916/3012 25012KT 3SM -RA BR OVC006
      TEMPO 2916/2917 3/4SM -SN OVC010
     FM291700 27015KT 6SM -RA SCT009 OVC013
     FM291900 32020G35KT P6SM SCT015 OVC035
     FM300000 30014KT P6SM BKN040=



000
FTUS43 KDLH 291500 AAC
TAFHYR
TAF AMD
KHYR 291541Z 2916/3012 20013KT 1 1/2SM -SN BR OVC012
     FM291700 20009KT 5SM -RA BR OVC009
     FM292000 29017G30KT P6SM OVC030
     FM300000 30012KT P6SM BKN035=



000
FTUS43 KDLH 291500 AAB
TAFDLH
TAF AMD
KDLH 291539Z 2916/3012 24013KT 3SM -RA BR OVC006
      TEMPO 2916/2917 2SM -RASNPL OVC011
     FM291700 27015KT 6SM -RA SCT009 OVC013
     FM291900 32020G35KT P6SM SCT015 OVC035
     FM300000 30014KT P6SM BKN040=



000
FTUS43 KDLH 291500 AAB
TAFHYR
TAF AMD
KHYR 291506Z 2915/3012 20017KT P6SM -DZ OVC014
     FM291600 22008KT 5SM -RA BR OVC009
     FM292000 29017G30KT P6SM OVC030
     FM300000 30012KT P6SM BKN035=



000
FTUS43 KDLH 291500 AAB
TAFHYR
TAF AMD
KHYR 291506Z 2915/3012 20017KT P6SM -DZ OVC014
     FM291600 22008KT 5SM -RA BR OVC009
     FM292000 29017G30KT P6SM OVC030
     FM300000 30012KT P6SM BKN035=



000
FTUS43 KDLH 291500 AAC
TAFBRD
TAF AMD
KBRD 291504Z 2915/3012 31023G27KT P6SM -RA BKN011 OVC016
      TEMPO 2915/2916 31011KT 3SM RA BR BKN008
     FM291700 32016G30KT P6SM BKN040
     FM300000 30012KT P6SM BKN040=



000
FTUS43 KDLH 291500 AAB
TAFINL
TAF AMD
KINL 291503Z 2915/3012 31015G23KT P6SM -RA OVC009
     FM300000 30014KT P6SM BKN040=



000
FTUS43 KDLH 291500 AAA
TAFDLH
TAF AMD
KDLH 291500Z 2915/3012 24012KT 1 1/2SM -RA BR OVC008
      TEMPO 2915/2916 5SM -RASN OVC011
     FM291600 27015KT 6SM -RA SCT009 OVC013
     FM291900 32020G35KT P6SM SCT015 OVC035
     FM300000 30014KT P6SM BKN040=



000
FTUS43 KDLH 291400 AAB
TAFBRD
TAF AMD
KBRD 291442Z 2915/3012 31023G27KT P6SM -RA BKN011 OVC016
      TEMPO 2915/2916 25010KT 1 1/2SM RA BR
     FM291700 32016G30KT P6SM BKN040
     FM300000 30012KT P6SM BKN040=



000
FTUS43 KDLH 291400 AAB
TAFBRD
TAF AMD
KBRD 291442Z 2915/3012 31023G27KT P6SM -RA BKN011 OVC016
      TEMPO 2915/2916 25010KT 1 1/2SM RA BR
     FM291700 32016G30KT P6SM BKN040
     FM300000 30012KT P6SM BKN040=



000
FTUS43 KDLH 291300 AAA
TAFBRD
TAF AMD
KBRD 291309Z 2913/3012 20012KT P6SM OVC019 WS020/20045KT
      TEMPO 2914/2915 5SM -SNRA OVC006
     FM291500 28010KT 6SM -RA SCT012 OVC025
     FM291700 32016G30KT P6SM BKN040
     FM300000 30012KT P6SM BKN040=



000
FTUS43 KDLH 291300 AAA
TAFHYR
TAF AMD
KHYR 291309Z 2913/3012 19016G23KT P6SM OVC019
     FM291500 25014KT 4SM -RASN OVC018
     FM292000 29017G30KT P6SM OVC030
     FM300000 30012KT P6SM BKN035=



000
FTUS43 KDLH 291300 AAA
TAFBRD
TAF AMD
KBRD 291309Z 2913/3012 20012KT P6SM OVC019 WS020/20045KT
      TEMPO 2914/2915 5SM -SNRA OVC006
     FM291500 28010KT 6SM -RA SCT012 OVC025
     FM291700 32016G30KT P6SM BKN040
     FM300000 30012KT P6SM BKN040=



000
FTUS43 KDLH 291300 AAA
TAFHYR
TAF AMD
KHYR 291309Z 2913/3012 19016G23KT P6SM OVC019
     FM291500 25014KT 4SM -RASN OVC018
     FM292000 29017G30KT P6SM OVC030
     FM300000 30012KT P6SM BKN035=



000
FTUS43 KDLH 291300 AAA
TAFINL
TAF AMD
KINL 291306Z 2913/3012 23006KT 3SM -SN BR OVC005
      TEMPO 2913/2915 28008KT 2SM -SNRA BKN010
     FM291500 33018G30KT P6SM SCT020 OVC035
     FM300000 30014KT P6SM BKN040=



000
FTUS43 KDLH 291300 AAA
TAFINL
TAF AMD
KINL 291306Z 2913/3012 23006KT 3SM -SN BR OVC005
      TEMPO 2913/2915 28008KT 2SM -SNRA BKN010
     FM291500 33018G30KT P6SM SCT020 OVC035
     FM300000 30014KT P6SM BKN040=



000
FTUS43 KDLH 291300 AAB
TAFDLH
TAF AMD
KDLH 291304Z 2913/3012 21020G28KT P6SM OVC016
      TEMPO 2914/2916 25015KT 5SM -RASN
     FM291600 27015KT 6SM -RA SCT009 OVC020
     FM291900 32020G35KT P6SM SCT015 OVC035
     FM300000 30014KT P6SM BKN040=



000
FTUS43 KDLH 291300 AAB
TAFDLH
TAF AMD
KDLH 291304Z 2913/3012 21020G28KT P6SM OVC016
      TEMPO 2914/2916 25015KT 5SM -RASN
     FM291600 27015KT 6SM -RA SCT009 OVC020
     FM291900 32020G35KT P6SM SCT015 OVC035
     FM300000 30014KT P6SM BKN040=



000
FTUS43 KDLH 291200 AAA
TAFDLH
TAF AMD
KDLH 291202Z 2912/3012 21012G22KT P6SM BKN025 OVC040
      TEMPO 2912/2916 25015KT 5SM -RASN BKN022
     FM291600 27015KT 6SM -RA SCT009 OVC020
     FM291900 32020G35KT P6SM SCT015 OVC035
     FM300000 30014KT P6SM BKN040=



000
FTUS43 KDLH 291200 AAA
TAFDLH
TAF AMD
KDLH 291202Z 2912/3012 21012G22KT P6SM BKN025 OVC040
      TEMPO 2912/2916 25015KT 5SM -RASN BKN022
     FM291600 27015KT 6SM -RA SCT009 OVC020
     FM291900 32020G35KT P6SM SCT015 OVC035
     FM300000 30014KT P6SM BKN040=



000
FTUS43 KDLH 291100 RRA
TAFBRD
TAF
KBRD 291147Z 2912/3012 19012G25KT P6SM -RA SCT040 OVC070
      WS020/20045KT
      TEMPO 2912/2915 5SM -SNRA SCT025 BKN040
     FM291500 28010KT 6SM -RA SCT012 OVC025
     FM291700 32016G30KT P6SM BKN040
     FM300000 30012KT P6SM BKN040=



000
FTUS43 KDLH 291100 RRA
TAFDLH
TAF
KDLH 291147Z 2912/3012 20012G20KT P6SM SCT070 OVC100
      TEMPO 2912/2916 23015KT 5SM -RASN BKN022
     FM291600 25015G22KT 6SM -RA SCT009 OVC020
     FM291800 32020G35KT P6SM SCT020 OVC035
     FM300000 30014KT P6SM BKN040=



000
FTUS43 KDLH 291100 RRA
TAFHYR
TAF
KHYR 291147Z 2912/3012 19012G20KT P6SM -RA BKN025 OVC050
      TEMPO 2912/2915 4SM -FZRA OVC020
     FM291500 25014KT 4SM -RASN OVC018
     FM292000 29017G30KT P6SM OVC030
     FM300000 30012KT P6SM BKN035=



000
FTUS43 KDLH 291100 RRA
TAFINL
TAF
KINL 291147Z 2912/3012 21014KT P6SM -RA OVC025
      TEMPO 2912/2915 28008KT 2SM -SNRA BKN015
     FM291500 33018G30KT P6SM SCT020 OVC035
     FM300000 30014KT P6SM BKN040=



000
FTUS43 KDLH 291100 RRA
TAFDLH
TAF
KDLH 291147Z 2912/3012 20012G20KT P6SM SCT070 OVC100
      TEMPO 2912/2916 23015KT 5SM -RASN BKN022
     FM291600 25015G22KT 6SM -RA SCT009 OVC020
     FM291800 32020G35KT P6SM SCT020 OVC035
     FM300000 30014KT P6SM BKN040=



000
FTUS43 KDLH 291100 RRA
TAFBRD
TAF
KBRD 291147Z 2912/3012 19012G25KT P6SM -RA SCT040 OVC070
      WS020/20045KT
      TEMPO 2912/2915 5SM -SNRA SCT025 BKN040
     FM291500 28010KT 6SM -RA SCT012 OVC025
     FM291700 32016G30KT P6SM BKN040
     FM300000 30012KT P6SM BKN040=



000
FTUS43 KDLH 291100 RRA
TAFHYR
TAF
KHYR 291147Z 2912/3012 19012G20KT P6SM -RA BKN025 OVC050
      TEMPO 2912/2915 4SM -FZRA OVC020
     FM291500 25014KT 4SM -RASN OVC018
     FM292000 29017G30KT P6SM OVC030
     FM300000 30012KT P6SM BKN035=



000
FTUS43 KDLH 291100 RRA
TAFINL
TAF
KINL 291147Z 2912/3012 21014KT P6SM -RA OVC025
      TEMPO 2912/2915 28008KT 2SM -SNRA BKN015
     FM291500 33018G30KT P6SM SCT020 OVC035
     FM300000 30014KT P6SM BKN040=



000
FTUS43 KDLH 291100 AAB
TAFDLH
TAF AMD
KDLH 291113Z 2911/3006 21012G20KT P6SM SCT070 OVC100
      TEMPO 2911/2914 18015KT 5SM -RASN BKN025
     FM291400 25015G22KT 6SM -RA SCT015 OVC025
     FM291800 32018G32KT P6SM -RA SCT025 OVC035
     FM292000 30020G35KT P6SM BKN040=



000
FTUS43 KDLH 291100 AAB
TAFDLH
TAF AMD
KDLH 291113Z 2911/3006 21012G20KT P6SM SCT070 OVC100
      TEMPO 2911/2914 18015KT 5SM -RASN BKN025
     FM291400 25015G22KT 6SM -RA SCT015 OVC025
     FM291800 32018G32KT P6SM -RA SCT025 OVC035
     FM292000 30020G35KT P6SM BKN040=



000
FTUS43 KDLH 291000 AAC
TAFBRD
TAF AMD
KBRD 291054Z 2911/3006 19012G25KT P6SM -RA SCT040 OVC070
      WS020/20045KT
      TEMPO 2911/2915 5SM -SNRA SCT025 BKN040
     FM291500 28010KT 6SM -RA SCT012 OVC025
     FM291700 32016G30KT P6SM BKN040=



000
FTUS43 KDLH 290900 AAA
TAFINL
TAF AMD
KINL 290922Z 2909/3006 21010G20KT P6SM -RA SCT025 OVC040
      WS020/24040KT
      TEMPO 2910/2914 23010KT 5SM -SNRA SCT015 OVC025
     FM291400 29014KT 5SM -SNRA SCT007 OVC018
     FM291600 33018G30KT P6SM OVC030
     FM292200 31016G30KT P6SM BKN040=



000
FTUS43 KDLH 290900 AAA
TAFINL
TAF AMD
KINL 290922Z 2909/3006 21010G20KT P6SM -RA SCT025 OVC040
      WS020/24040KT
      TEMPO 2910/2914 23010KT 5SM -SNRA SCT015 OVC025
     FM291400 29014KT 5SM -SNRA SCT007 OVC018
     FM291600 33018G30KT P6SM OVC030
     FM292200 31016G30KT P6SM BKN040=



000
FTUS43 KDLH 290900 AAA
TAFDLH
TAF AMD
KDLH 290902Z 2909/3006 21012G20KT P6SM SCT070 OVC100
      TEMPO 2910/2914 18015KT 5SM -RASN SCT025 OVC060
     FM291400 25015G22KT 6SM -RA SCT015 OVC025
     FM291800 32018G32KT P6SM -RA SCT025 OVC035
     FM292000 30020G35KT P6SM BKN040=



000
FTUS43 KDLH 290800 AAB
TAFBRD
TAF AMD
KBRD 290847Z 2909/3006 19012KT P6SM -RA OVC070 WS020/20045KT
      TEMPO 2909/2912 17012G20KT 5SM -SNRA SCT015 BKN040
     FM291200 24012KT 6SM -RA SCT015 OVC030
     FM291600 32018G35KT 6SM -RA OVC025
     FM292000 32016G30KT P6SM BKN040=



000
FTUS43 KDLH 290800 AAB
TAFBRD
TAF AMD
KBRD 290847Z 2909/3006 19012KT P6SM -RA OVC070 WS020/20045KT
      TEMPO 2909/2912 17012G20KT 5SM -SNRA SCT015 BKN040
     FM291200 24012KT 6SM -RA SCT015 OVC030
     FM291600 32018G35KT 6SM -RA OVC025
     FM292000 32016G30KT P6SM BKN040=



000
FTUS43 KDLH 290600 AAA
TAFBRD
TAF AMD
KBRD 290617Z 2906/3006 19015G25KT P6SM OVC120 WS020/19045KT
     FM290800 20012G19KT P6SM -RA OVC070 WS020/20045KT
     FM291200 23010G17KT 6SM -RA OVC020
     FM291600 31020G35KT 6SM -RA OVC025=



000
FTUS43 KDLH 290600 AAA
TAFBRD
TAF AMD
KBRD 290617Z 2906/3006 19015G25KT P6SM OVC120 WS020/19045KT
     FM290800 20012G19KT P6SM -RA OVC070 WS020/20045KT
     FM291200 23010G17KT 6SM -RA OVC020
     FM291600 31020G35KT 6SM -RA OVC025=



000
FTUS43 KDLH 290500
TAFDLH
TAF
KDLH 290531Z 2906/3006 20015KT P6SM BKN140 WS020/20045KT
     FM290900 21017G25KT 6SM -RA BR SCT025 OVC040
     FM291100 22015G21KT 6SM -RA BR SCT007 OVC013
     FM291700 30017G27KT 6SM -RA SCT025 OVC035
     FM291900 30020G28KT P6SM BKN050=



000
FTUS43 KDLH 290500
TAFINL
TAF
KINL 290531Z 2906/3006 19012G18KT P6SM SCT030 BKN080 WS020/20040KT
     FM290800 19011G18KT 6SM -RA BKN025 OVC040 WS020/20040KT
     FM291200 24008G15KT 4SM -SNRA SCT007 OVC013
     FM291500 31013G21KT 6SM -RASN BKN013 OVC035
     FM291800 30018G27KT P6SM BKN040=



000
FTUS43 KDLH 290500
TAFHYR
TAF
KHYR 290531Z 2906/3006 19011G18KT P6SM BKN250 WS020/20040KT
     FM291000 19011G18KT 6SM -RA BKN020 OVC050 WS020/20040KT
      TEMPO 2910/2913 4SM -FZRA OVC020
     FM291300 22015G25KT 2SM -RASN OVC020
     FM291800 29017G30KT 6SM -RA OVC025=



000
FTUS43 KDLH 290500
TAFBRD
TAF
KBRD 290531Z 2906/3006 19015KT P6SM OVC120 WS020/19045KT
     FM290800 20012G19KT P6SM -RA OVC070 WS020/20045KT
     FM291200 23010G17KT 6SM -RA OVC020
     FM291600 31020G35KT 6SM -RA OVC025=



000
FTUS43 KDLH 290500
TAFHYR
TAF
KHYR 290531Z 2906/3006 19011G18KT P6SM BKN250 WS020/20040KT
     FM291000 19011G18KT 6SM -RA BKN020 OVC050 WS020/20040KT
      TEMPO 2910/2913 4SM -FZRA OVC020
     FM291300 22015G25KT 2SM -RASN OVC020
     FM291800 29017G30KT 6SM -RA OVC025=



000
FTUS43 KDLH 290500
TAFDLH
TAF
KDLH 290531Z 2906/3006 20015KT P6SM BKN140 WS020/20045KT
     FM290900 21017G25KT 6SM -RA BR SCT025 OVC040
     FM291100 22015G21KT 6SM -RA BR SCT007 OVC013
     FM291700 30017G27KT 6SM -RA SCT025 OVC035
     FM291900 30020G28KT P6SM BKN050=



000
FTUS43 KDLH 290500
TAFBRD
TAF
KBRD 290531Z 2906/3006 19015KT P6SM OVC120 WS020/19045KT
     FM290800 20012G19KT P6SM -RA OVC070 WS020/20045KT
     FM291200 23010G17KT 6SM -RA OVC020
     FM291600 31020G35KT 6SM -RA OVC025=



000
FTUS43 KDLH 290500
TAFINL
TAF
KINL 290531Z 2906/3006 19012G18KT P6SM SCT030 BKN080 WS020/20040KT
     FM290800 19011G18KT 6SM -RA BKN025 OVC040 WS020/20040KT
     FM291200 24008G15KT 4SM -SNRA SCT007 OVC013
     FM291500 31013G21KT 6SM -RASN BKN013 OVC035
     FM291800 30018G27KT P6SM BKN040=



000
FTUS43 KDLH 282300
TAFBRD
TAF
KBRD 282333Z 2900/2924 19012G19KT P6SM BKN250
     FM290300 19012G19KT P6SM OVC250 WS020/19045KT
     FM290800 20012G19KT P6SM -RA OVC070 WS020/20045KT
     FM291200 23010G17KT 6SM -RA OVC020
     FM291600 31020G35KT 6SM -RA OVC025=



000
FTUS43 KDLH 282300
TAFHYR
TAF
KHYR 282333Z 2900/2924 19012G19KT P6SM FEW250
     FM290300 19011G18KT P6SM BKN250 WS020/20040KT
     FM291000 19011G18KT 6SM -RA BKN020 OVC050 WS020/20040KT
      TEMPO 2910/2913 4SM -FZRA OVC020
     FM291300 22015G25KT 2SM -RASN OVC020
     FM291800 29017G30KT 6SM -RA OVC025=



000
FTUS43 KDLH 282300
TAFDLH
TAF
KDLH 282333Z 2900/2924 20015G21KT P6SM SCT200
     FM290400 20015G22KT P6SM BKN140 WS020/20045KT
     FM290900 21017G25KT 6SM -RA BR SCT025 OVC040
     FM291100 22015G21KT 6SM -RA BR SCT007 OVC013
     FM291700 30017G27KT 6SM -RA SCT025 OVC035
     FM291900 30020G28KT P6SM BKN050=



000
FTUS43 KDLH 282300
TAFINL
TAF
KINL 282333Z 2900/2924 20012G19KT P6SM BKN200
     FM290300 19012G18KT P6SM SCT030 BKN080 WS020/20040KT
     FM290800 19011G18KT 6SM -RA BKN025 OVC040 WS020/20040KT
     FM291200 24008G15KT 4SM -SNRA SCT007 OVC013
     FM291500 31013G21KT 6SM -RASN BKN013 OVC035
     FM291800 30018G27KT P6SM BKN040=



000
FTUS43 KDLH 282300
TAFBRD
TAF
KBRD 282333Z 2900/2924 19012G19KT P6SM BKN250
     FM290300 19012G19KT P6SM OVC250 WS020/19045KT
     FM290800 20012G19KT P6SM -RA OVC070 WS020/20045KT
     FM291200 23010G17KT 6SM -RA OVC020
     FM291600 31020G35KT 6SM -RA OVC025=



000
FTUS43 KDLH 282300
TAFINL
TAF
KINL 282333Z 2900/2924 20012G19KT P6SM BKN200
     FM290300 19012G18KT P6SM SCT030 BKN080 WS020/20040KT
     FM290800 19011G18KT 6SM -RA BKN025 OVC040 WS020/20040KT
     FM291200 24008G15KT 4SM -SNRA SCT007 OVC013
     FM291500 31013G21KT 6SM -RASN BKN013 OVC035
     FM291800 30018G27KT P6SM BKN040=



000
FTUS43 KDLH 282300
TAFHYR
TAF
KHYR 282333Z 2900/2924 19012G19KT P6SM FEW250
     FM290300 19011G18KT P6SM BKN250 WS020/20040KT
     FM291000 19011G18KT 6SM -RA BKN020 OVC050 WS020/20040KT
      TEMPO 2910/2913 4SM -FZRA OVC020
     FM291300 22015G25KT 2SM -RASN OVC020
     FM291800 29017G30KT 6SM -RA OVC025=



000
FTUS43 KDLH 282300
TAFDLH
TAF
KDLH 282333Z 2900/2924 20015G21KT P6SM SCT200
     FM290400 20015G22KT P6SM BKN140 WS020/20045KT
     FM290900 21017G25KT 6SM -RA BR SCT025 OVC040
     FM291100 22015G21KT 6SM -RA BR SCT007 OVC013
     FM291700 30017G27KT 6SM -RA SCT025 OVC035
     FM291900 30020G28KT P6SM BKN050=



000
FTUS43 KDLH 282100 AAB
TAFDLH
TAF AMD
KDLH 282102Z 2821/2918 19016G22KT P6SM SKC
     FM290200 20017G23KT P6SM BKN140 WS020/21045KT
     FM291000 23021G28KT 4SM -RA BR BKN025 OVC040
     FM291700 30017G27KT P6SM -RA SCT025 OVC040=



000
FTUS43 KDLH 282000 AAA
TAFDLH
TAF AMD
KDLH 282002Z 2820/2918 22015KT P6SM SKC
     FM290200 20017G23KT P6SM BKN140 WS020/21045KT
     FM291000 23021G28KT 4SM -RA BR BKN025 OVC040
     FM291700 30017G27KT P6SM -RA SCT025 OVC040=



000
FTUS43 KDLH 281700
TAFBRD
TAF
KBRD 281724Z 2818/2918 20016G20KT P6SM SKC
     FM290000 18014G24KT P6SM BKN250
     FM290300 19015G25KT P6SM OVC250 WS020/19045KT
     FM290700 20016G26KT P6SM -RA SCT020 OVC070
     FM291100 23013G23KT P6SM -RA OVC020
     FM291400 31020G30KT P6SM -RA OVC025=



000
FTUS43 KDLH 281700
TAFHYR
TAF
KHYR 281724Z 2818/2918 20009G14KT P6SM SKC
     FM290400 19011G18KT P6SM BKN250 WS020/20040KT
     FM291000 19015G25KT 4SM -RA BKN020 OVC040
      TEMPO 2910/2913 -FZRA OVC020
     FM291300 21015G25KT 2SM -RASN OVC020
     FM291500 25012G22KT P6SM -RA OVC025=



000
FTUS43 KDLH 281700
TAFDLH
TAF
KDLH 281724Z 2818/2918 18010G20KT P6SM SKC
     FM290200 20017G23KT P6SM BKN140 WS020/21045KT
     FM291000 23021G28KT 4SM -RA BR BKN025 OVC040
     FM291700 30017G27KT P6SM -RA SCT025 OVC040=



000
FTUS43 KDLH 281700
TAFINL
TAF
KINL 281724Z 2818/2918 19008G15KT P6SM SCT250
     FM290300 18012G22KT P6SM SCT030 BKN100 WS020/20040KT
     FM290800 21012G22KT P6SM -RA BKN020 OVC040
     FM291200 27012G22KT 4SM -SN OVC020
     FM291600 31018G28KT P6SM -RA SCT020 OVC040=



000
FTUS43 KDLH 281600 AAA
TAFHYR
TAF AMD
KHYR 281659Z 2817/2912 18012G16KT P6SM SKC
     FM281800 19012KT P6SM SKC
     FM290400 19010KT P6SM SCT100 WS020/20040KT
     FM291000 19012KT P6SM -RA BKN020 OVC040 WS020/21045KT=



000
FTUS43 KDLH 281600 AAA
TAFHYR
TAF AMD
KHYR 281659Z 2817/2912 18012G16KT P6SM SKC
     FM281800 19012KT P6SM SKC
     FM290400 19010KT P6SM SCT100 WS020/20040KT
     FM291000 19012KT P6SM -RA BKN020 OVC040 WS020/21045KT=



000
FTUS43 KDLH 281600 AAA
TAFINL
TAF AMD
KINL 281658Z 2817/2912 22011G20KT P6SM SKC
     FM290000 19012KT P6SM BKN100
     FM290300 20012KT P6SM SCT030 BKN060 WS020/20040KT
     FM290800 21012KT P6SM -RASN BKN020 OVC040 WS020/22035KT=



000
FTUS43 KDLH 281600 AAA
TAFBRD
TAF AMD
KBRD 281658Z 2817/2912 17010KT P6SM SKC
     FM290000 18012KT P6SM SCT050 BKN100
     FM290300 19012KT P6SM SCT030 BKN060 WS020/19045KT
     FM290800 19014KT P6SM -RA BKN020 OVC040 WS020/21045KT=



000
FTUS43 KDLH 281600 AAA
TAFINL
TAF AMD
KINL 281658Z 2817/2912 22011G20KT P6SM SKC
     FM290000 19012KT P6SM BKN100
     FM290300 20012KT P6SM SCT030 BKN060 WS020/20040KT
     FM290800 21012KT P6SM -RASN BKN020 OVC040 WS020/22035KT=



000
FTUS43 KDLH 281600 AAA
TAFBRD
TAF AMD
KBRD 281658Z 2817/2912 17010KT P6SM SKC
     FM290000 18012KT P6SM SCT050 BKN100
     FM290300 19012KT P6SM SCT030 BKN060 WS020/19045KT
     FM290800 19014KT P6SM -RA BKN020 OVC040 WS020/21045KT=



000
FTUS43 KDLH 281600 AAA
TAFDLH
TAF AMD
KDLH 281601Z 2816/2912 22012KT P6SM SKC
     FM281800 19012G20KT P6SM SCT200
     FM290000 20010KT P6SM BKN120
     FM290400 20012KT P6SM SCT030 BKN060 WS020/21045KT
     FM291000 21012KT P6SM -RA BKN025 OVC040 WS020/22045KT=



000
FTUS43 KDLH 281600 AAA
TAFDLH
TAF AMD
KDLH 281601Z 2816/2912 22012KT P6SM SKC
     FM281800 19012G20KT P6SM SCT200
     FM290000 20010KT P6SM BKN120
     FM290400 20012KT P6SM SCT030 BKN060 WS020/21045KT
     FM291000 21012KT P6SM -RA BKN025 OVC040 WS020/22045KT=



000
FTUS43 KDLH 281100 RRA
TAFINL
TAF
KINL 281142Z 2812/2912 19005KT P6SM SKC
     FM281600 19012G20KT P6SM SCT150
     FM290000 19012KT P6SM BKN100
     FM290300 20012KT P6SM SCT030 BKN060 WS020/20040KT
     FM290800 21012KT P6SM -RASN BKN020 OVC040 WS020/22035KT=



000
FTUS43 KDLH 281100 RRA
TAFDLH
TAF
KDLH 281142Z 2812/2912 18005KT P6SM SKC
     FM281800 19012G20KT P6SM SCT200
     FM290000 20010KT P6SM BKN120
     FM290400 20012KT P6SM SCT030 BKN060 WS020/21045KT
     FM291000 21012KT P6SM -RA BKN025 OVC040 WS020/22045KT=



000
FTUS43 KDLH 281100 RRA
TAFHYR
TAF
KHYR 281142Z 2812/2912 20005KT P6SM SKC
     FM281800 19012KT P6SM SKC
     FM290400 19010KT P6SM SCT100 WS020/20040KT
     FM291000 19012KT P6SM -RA BKN020 OVC040 WS020/21045KT=



000
FTUS43 KDLH 281100 RRA
TAFINL
TAF
KINL 281142Z 2812/2912 19005KT P6SM SKC
     FM281600 19012G20KT P6SM SCT150
     FM290000 19012KT P6SM BKN100
     FM290300 20012KT P6SM SCT030 BKN060 WS020/20040KT
     FM290800 21012KT P6SM -RASN BKN020 OVC040 WS020/22035KT=



000
FTUS43 KDLH 281100 RRA
TAFBRD
TAF
KBRD 281142Z 2812/2912 18005KT P6SM SKC
     FM281600 18012G20KT P6SM SCT200
     FM290000 18012KT P6SM SCT050 BKN100
     FM290300 19012KT P6SM SCT030 BKN060 WS020/19045KT
     FM290800 19014KT P6SM -RA BKN020 OVC040 WS020/21045KT=



000
FTUS43 KDLH 281100 RRA
TAFHYR
TAF
KHYR 281142Z 2812/2912 20005KT P6SM SKC
     FM281800 19012KT P6SM SKC
     FM290400 19010KT P6SM SCT100 WS020/20040KT
     FM291000 19012KT P6SM -RA BKN020 OVC040 WS020/21045KT=



000
FTUS43 KDLH 281100 RRA
TAFDLH
TAF
KDLH 281142Z 2812/2912 18005KT P6SM SKC
     FM281800 19012G20KT P6SM SCT200
     FM290000 20010KT P6SM BKN120
     FM290400 20012KT P6SM SCT030 BKN060 WS020/21045KT
     FM291000 21012KT P6SM -RA BKN025 OVC040 WS020/22045KT=



000
FTUS43 KDLH 281100 RRA
TAFBRD
TAF
KBRD 281142Z 2812/2912 18005KT P6SM SKC
     FM281600 18012G20KT P6SM SCT200
     FM290000 18012KT P6SM SCT050 BKN100
     FM290300 19012KT P6SM SCT030 BKN060 WS020/19045KT
     FM290800 19014KT P6SM -RA BKN020 OVC040 WS020/21045KT=



000
FTUS43 KDLH 280700 AAA
TAFINL
TAF AMD
KINL 280754Z 2808/2906 VRB03KT P6SM SCT060
     FM281600 19014G20KT P6SM SCT150
     FM290000 18014KT P6SM SCT090 WS020/20035KT=



000
FTUS43 KDLH 280700 AAA
TAFINL
TAF AMD
KINL 280754Z 2808/2906 VRB03KT P6SM SCT060
     FM281600 19014G20KT P6SM SCT150
     FM290000 18014KT P6SM SCT090 WS020/20035KT=



000
FTUS43 KDLH 280500
TAFBRD
TAF
KBRD 280537Z 2806/2906 18003KT P6SM SCT070
     FM281700 18013G20KT P6SM SKC
     FM290000 18013KT P6SM SCT090 WS020/20045KT=



000
FTUS43 KDLH 280500
TAFINL
TAF
KINL 280537Z 2806/2906 VRB03KT P6SM SKC
     FM281700 19012G19KT P6SM SKC
     FM290000 18012KT P6SM SCT090 WS020/20035KT=



000
FTUS43 KDLH 280500
TAFDLH
TAF
KDLH 280537Z 2806/2906 VRB05KT P6SM SKC
     FM281800 19013G20KT P6SM SKC
     FM290200 20013KT P6SM SCT090 WS020/20040KT=



000
FTUS43 KDLH 280500
TAFHYR
TAF
KHYR 280537Z 2806/2906 VRB03KT P6SM SKC
     FM281800 19011G18KT P6SM SKC
     FM290000 18011KT P6SM SCT100 WS020/20040KT=



000
FTUS43 KDLH 280500
TAFDLH
TAF
KDLH 280537Z 2806/2906 VRB05KT P6SM SKC
     FM281800 19013G20KT P6SM SKC
     FM290200 20013KT P6SM SCT090 WS020/20040KT=



000
FTUS43 KDLH 280500
TAFBRD
TAF
KBRD 280537Z 2806/2906 18003KT P6SM SCT070
     FM281700 18013G20KT P6SM SKC
     FM290000 18013KT P6SM SCT090 WS020/20045KT=



000
FTUS43 KDLH 280500
TAFINL
TAF
KINL 280537Z 2806/2906 VRB03KT P6SM SKC
     FM281700 19012G19KT P6SM SKC
     FM290000 18012KT P6SM SCT090 WS020/20035KT=



000
FTUS43 KDLH 280500
TAFHYR
TAF
KHYR 280537Z 2806/2906 VRB03KT P6SM SKC
     FM281800 19011G18KT P6SM SKC
     FM290000 18011KT P6SM SCT100 WS020/20040KT=



    US Dept of Commerce
    National Oceanic and Atmospheric Administration
    National Weather Service
    1325 East West Highway
    Silver Spring, MD 20910
    Page Author: NWS Internet Services Team
Disclaimer
Information Quality
Credits
Glossary
Privacy Policy
Freedom of Information Act (FOIA)
About Us
Career Opportunities